Time;durP1;ratioP1;P1;durP2;ratioP2;P2;SDS_P1;SDS_P2;PMS_P1;PMS_P2;Temp;Humidity;BMP_temperature;BMP_pressure;BME280_temperature;BME280_humidity;BME280_pressure;Samples;Min_cycle;Max_cycle;Signal;HPM_P1;HPM_P2
2022/12/06 00:01:19;;;;;;;4.70;4.30;;;;;;;;;;5031188;28;20694;-84
2022/12/06 00:03:47;;;;;;;5.10;4.63;;;;;;;;;;5032159;28;20217;-85
2022/12/06 00:06:17;;;;;;;7.73;4.60;;;;;;;;;;5031784;28;20337;-82
2022/12/06 00:08:45;;;;;;;6.90;4.70;;;;;;;;;;5031790;28;20210;-84
2022/12/06 00:11:13;;;;;;;5.93;5.33;;;;;;;;;;5031453;28;20240;-84
2022/12/06 00:13:40;;;;;;;5.33;4.83;;;;;;;;;;5031737;28;20206;-84
2022/12/06 00:16:09;;;;;;;6.27;5.60;;;;;;;;;;5031357;28;20321;-84
2022/12/06 00:18:37;;;;;;;6.63;5.10;;;;;;;;;;5031946;28;20210;-84
2022/12/06 00:21:08;;;;;;;5.53;4.87;;;;;;;;;;5031128;28;20276;-84
2022/12/06 00:23:38;;;;;;;6.53;4.90;;;;;;;;;;5031867;28;20289;-84
2022/12/06 00:26:05;;;;;;;5.90;4.93;;;;;;;;;;5030969;28;20725;-83
2022/12/06 00:28:32;;;;;;;5.50;5.00;;;;;;;;;;5031615;28;20210;-82
2022/12/06 00:31:00;;;;;;;6.00;4.77;;;;;;;;;;5031104;28;20321;-83
2022/12/06 00:33:27;;;;;;;4.67;4.23;;;;;;;;;;5031696;28;20300;-83
2022/12/06 00:35:58;;;;;;;5.20;4.70;;;;;;;;;;5031431;28;20369;-83
2022/12/06 00:38:25;;;;;;;4.57;4.17;;;;;;;;;;5031444;28;20282;-84
2022/12/06 00:41:00;;;;;;;5.13;4.60;;;;;;;;;;5030943;28;20322;-83
2022/12/06 00:43:27;;;;;;;5.50;4.90;;;;;;;;;;5031832;28;20745;-83
2022/12/06 00:45:54;;;;;;;5.50;5.00;;;;;;;;;;5031074;28;20913;-83
2022/12/06 00:48:21;;;;;;;5.43;4.83;;;;;;;;;;5031628;28;20209;-83
2022/12/06 00:50:48;;;;;;;4.80;4.40;;;;;;;;;;5035434;28;20241;-84
2022/12/06 00:53:16;;;;;;;5.40;4.90;;;;;;;;;;5036249;28;20285;-82
2022/12/06 00:55:43;;;;;;;4.70;4.37;;;;;;;;;;5035555;28;20321;-84
2022/12/06 00:58:11;;;;;;;4.87;4.37;;;;;;;;;;5041446;28;20290;-83
2022/12/06 01:00:39;;;;;;;4.90;4.40;;;;;;;;;;5035571;28;20246;-84
2022/12/06 01:03:06;;;;;;;4.70;4.30;;;;;;;;;;5035518;28;20216;-84
2022/12/06 01:05:33;;;;;;;5.03;4.63;;;;;;;;;;5034797;28;20282;-84
2022/12/06 01:08:00;;;;;;;6.13;4.83;;;;;;;;;;5035135;28;20206;-84
2022/12/06 01:10:28;;;;;;;6.70;4.60;;;;;;;;;;5034922;28;20249;-84
2022/12/06 01:12:55;;;;;;;5.23;4.17;;;;;;;;;;5035249;28;20318;-84
2022/12/06 01:15:23;;;;;;;6.73;4.20;;;;;;;;;;5035017;28;20207;-84
2022/12/06 01:17:50;;;;;;;4.47;3.73;;;;;;;;;;5034777;28;20203;-84
2022/12/06 01:20:17;;;;;;;4.10;3.80;;;;;;;;;;5034580;28;20209;-84
2022/12/06 01:22:44;;;;;;;4.13;3.57;;;;;;;;;;5034883;28;20231;-84
2022/12/06 01:25:11;;;;;;;4.03;3.07;;;;;;;;;;5034459;28;20227;-84
2022/12/06 01:27:38;;;;;;;5.27;3.70;;;;;;;;;;5034967;28;20218;-84
2022/12/06 01:30:06;;;;;;;4.57;3.80;;;;;;;;;;5034503;28;20607;-84
2022/12/06 01:32:35;;;;;;;3.60;3.30;;;;;;;;;;5035178;28;20230;-84
2022/12/06 01:35:02;;;;;;;3.20;2.90;;;;;;;;;;5034753;28;20222;-84
2022/12/06 01:37:30;;;;;;;4.30;3.30;;;;;;;;;;5034834;28;20245;-84
2022/12/06 01:39:57;;;;;;;3.80;3.50;;;;;;;;;;5034418;28;20647;-84
2022/12/06 01:42:24;;;;;;;3.43;3.13;;;;;;;;;;5034125;28;20241;-84
2022/12/06 01:44:53;;;;;;;3.40;3.10;;;;;;;;;;5034470;28;20217;-84
2022/12/06 01:47:21;;;;;;;3.40;3.10;;;;;;;;;;5034144;28;20242;-84
2022/12/06 01:49:51;;;;;;;3.63;3.20;;;;;;;;;;5034453;28;20241;-84
2022/12/06 01:52:18;;;;;;;3.27;3.07;;;;;;;;;;5033845;28;20734;-84
2022/12/06 01:54:46;;;;;;;5.57;3.40;;;;;;;;;;5034280;28;20674;-84
2022/12/06 01:57:14;;;;;;;3.80;3.50;;;;;;;;;;5033935;28;20242;-84
2022/12/06 01:59:41;;;;;;;3.80;3.50;;;;;;;;;;5033595;28;20209;-84
2022/12/06 02:02:09;;;;;;;3.57;3.27;;;;;;;;;;5033890;28;20246;-84
2022/12/06 02:04:37;;;;;;;3.77;3.47;;;;;;;;;;5034496;28;20223;-84
2022/12/06 02:07:06;;;;;;;3.43;3.13;;;;;;;;;;5031741;28;20285;-84
2022/12/06 02:09:33;;;;;;;5.03;3.67;;;;;;;;;;5033282;28;20223;-84
2022/12/06 02:12:00;;;;;;;3.63;3.33;;;;;;;;;;5033562;28;20248;-84
2022/12/06 02:14:29;;;;;;;3.53;3.20;;;;;;;;;;5034161;28;20206;-84
2022/12/06 02:17:05;;;;;;;3.53;3.33;;;;;;;;;;5032954;28;20606;-84
2022/12/06 02:19:48;;;;;;;4.00;3.70;;;;;;;;;;5034240;28;20211;-84
2022/12/06 02:22:19;;;;;;;3.50;3.20;;;;;;;;;;5053567;23;20233;-82
2022/12/06 02:24:59;;;;;;;3.30;3.00;;;;;;;;;;5033873;28;20281;-81
2022/12/06 02:27:54;;;;;;;3.43;3.23;;;;;;;;;;5033122;28;20603;-82
2022/12/06 02:30:46;;;;;;;4.13;3.27;;;;;;;;;;5013687;28;20215;-81
2022/12/06 02:33:17;;;;;;;3.50;3.20;;;;;;;;;;4994237;28;20231;-81
2022/12/06 02:35:48;;;;;;;3.30;2.90;;;;;;;;;;5013110;28;20238;-81
2022/12/06 02:38:17;;;;;;;3.80;3.50;;;;;;;;;;5021842;28;20195;-82
2022/12/06 02:40:46;;;;;;;3.73;3.43;;;;;;;;;;5033194;28;20615;-81
2022/12/06 02:43:16;;;;;;;3.23;3.03;;;;;;;;;;5033619;28;20239;-83
2022/12/06 02:45:45;;;;;;;3.97;3.67;;;;;;;;;;5033104;28;20234;-82
2022/12/06 02:48:13;;;;;;;3.70;3.40;;;;;;;;;;5033307;28;20211;-82
2022/12/06 02:50:44;;;;;;;3.53;3.30;;;;;;;;;;5032491;28;20240;-82
2022/12/06 02:53:13;;;;;;;3.50;3.20;;;;;;;;;;5031578;28;20238;-82
2022/12/06 02:55:40;;;;;;;3.97;3.67;;;;;;;;;;5032864;28;20238;-82
2022/12/06 02:58:07;;;;;;;4.03;3.73;;;;;;;;;;5033061;28;20221;-82
2022/12/06 03:00:37;;;;;;;3.80;3.50;;;;;;;;;;5032762;28;20237;-82
2022/12/06 03:03:25;;;;;;;4.57;3.97;;;;;;;;;;5033047;28;20226;-82
2022/12/06 03:06:02;;;;;;;4.07;3.77;;;;;;;;;;4999454;28;20230;-82
2022/12/06 03:08:36;;;;;;;4.80;3.70;;;;;;;;;;5032983;28;20578;-83
2022/12/06 03:11:04;;;;;;;3.83;3.40;;;;;;;;;;5031604;28;20253;-83
2022/12/06 03:13:34;;;;;;;3.90;3.60;;;;;;;;;;5032633;28;20818;-82
2022/12/06 03:16:06;;;;;;;4.60;4.20;;;;;;;;;;5032312;28;20239;-82
2022/12/06 03:18:38;;;;;;;4.93;4.27;;;;;;;;;;5032751;28;20206;-82
2022/12/06 03:21:09;;;;;;;3.90;3.60;;;;;;;;;;5032041;28;20578;-83
2022/12/06 03:23:37;;;;;;;3.50;3.20;;;;;;;;;;5032674;28;20199;-82
2022/12/06 03:26:05;;;;;;;4.17;3.77;;;;;;;;;;5032258;28;20304;-82
2022/12/06 03:28:35;;;;;;;3.77;3.47;;;;;;;;;;5032652;28;20222;-82
2022/12/06 03:31:04;;;;;;;3.80;3.40;;;;;;;;;;5032130;28;20230;-82
2022/12/06 03:33:32;;;;;;;4.60;3.73;;;;;;;;;;5032678;28;20214;-82
2022/12/06 03:36:00;;;;;;;3.87;3.47;;;;;;;;;;5031469;28;20710;-82
2022/12/06 03:38:30;;;;;;;4.30;3.90;;;;;;;;;;5032375;28;20209;-82
2022/12/06 03:41:00;;;;;;;3.87;3.53;;;;;;;;;;5031754;28;20602;-82
2022/12/06 03:43:27;;;;;;;4.00;3.60;;;;;;;;;;5032634;28;20192;-82
2022/12/06 03:45:56;;;;;;;3.90;3.60;;;;;;;;;;5031663;28;20248;-82
2022/12/06 03:48:26;;;;;;;3.90;3.53;;;;;;;;;;5032107;28;20210;-82
2022/12/06 03:50:56;;;;;;;3.93;3.63;;;;;;;;;;5031705;28;20241;-82
2022/12/06 03:53:23;;;;;;;3.87;3.57;;;;;;;;;;5032239;28;20234;-82
2022/12/06 03:55:51;;;;;;;5.57;4.30;;;;;;;;;;5031760;28;20599;-82
2022/12/06 03:58:19;;;;;;;3.73;3.43;;;;;;;;;;5031621;28;20207;-82
2022/12/06 04:00:46;;;;;;;4.50;3.40;;;;;;;;;;5031436;28;20234;-82
2022/12/06 04:03:13;;;;;;;3.83;3.47;;;;;;;;;;5031709;28;20231;-82
2022/12/06 04:05:40;;;;;;;4.93;4.00;;;;;;;;;;5031482;28;20242;-82
2022/12/06 04:08:07;;;;;;;4.83;3.70;;;;;;;;;;5031915;28;20215;-82
2022/12/06 04:10:34;;;;;;;4.27;3.87;;;;;;;;;;5031239;28;20246;-83
2022/12/06 04:13:04;;;;;;;4.27;3.83;;;;;;;;;;5031898;28;20230;-83
2022/12/06 04:15:33;;;;;;;3.70;3.40;;;;;;;;;;5031349;28;20262;-82
2022/12/06 04:18:15;;;;;;;4.83;4.20;;;;;;;;;;5031485;28;20219;-83
2022/12/06 04:23:33;;;;;;;3.97;3.63;;;;;;;;;;5031628;28;20337;-82
2022/12/06 04:26:00;;;;;;;4.40;3.97;;;;;;;;;;5031172;28;20237;-83
2022/12/06 04:39:27;;;;;;;4.37;3.93;;;;;;;;;;5031349;28;20232;-83
2022/12/06 04:44:40;;;;;;;3.30;3.10;;;;;;;;;;5011962;28;20604;-83
2022/12/06 04:47:07;;;;;;;4.10;3.70;;;;;;;;;;5028730;28;20233;-83
2022/12/06 04:49:35;;;;;;;3.97;3.67;;;;;;;;;;5031410;28;20206;-83
2022/12/06 04:52:03;;;;;;;3.90;3.60;;;;;;;;;;5031172;28;20240;-83
2022/12/06 04:54:30;;;;;;;3.80;3.50;;;;;;;;;;5031392;28;20214;-83
2022/12/06 04:56:57;;;;;;;4.60;3.77;;;;;;;;;;5030534;28;20248;-83
2022/12/06 04:59:25;;;;;;;4.30;3.90;;;;;;;;;;5030922;28;20694;-82
2022/12/06 05:01:53;;;;;;;3.80;3.50;;;;;;;;;;5030630;28;20271;-82
2022/12/06 05:04:20;;;;;;;3.90;3.50;;;;;;;;;;5031172;28;20229;-82
2022/12/06 05:06:48;;;;;;;4.07;3.67;;;;;;;;;;5030688;28;20241;-82
2022/12/06 05:09:15;;;;;;;5.17;3.73;;;;;;;;;;5031041;28;20213;-82
2022/12/06 05:11:43;;;;;;;4.10;3.60;;;;;;;;;;5030541;28;20245;-82
2022/12/06 05:14:10;;;;;;;3.90;3.57;;;;;;;;;;5031295;28;20207;-82
2022/12/06 05:16:37;;;;;;;4.90;3.87;;;;;;;;;;5030772;28;20249;-81
2022/12/06 05:19:05;;;;;;;3.70;3.40;;;;;;;;;;5031056;28;20214;-82
2022/12/06 05:21:33;;;;;;;4.43;3.50;;;;;;;;;;5030474;28;20618;-81
2022/12/06 05:24:00;;;;;;;4.23;3.83;;;;;;;;;;5030991;28;20213;-81
2022/12/06 05:26:28;;;;;;;5.33;3.87;;;;;;;;;;5030659;28;20233;-82
2022/12/06 05:28:56;;;;;;;5.07;4.30;;;;;;;;;;5030866;28;20691;-81
2022/12/06 05:31:23;;;;;;;4.10;3.40;;;;;;;;;;5030605;28;20243;-81
2022/12/06 05:33:51;;;;;;;3.87;3.47;;;;;;;;;;5031330;28;20211;-81
2022/12/06 05:36:21;;;;;;;4.07;3.67;;;;;;;;;;5033600;28;20729;-82
2022/12/06 05:38:49;;;;;;;4.23;3.60;;;;;;;;;;5034471;28;20195;-82
2022/12/06 05:41:16;;;;;;;4.30;3.60;;;;;;;;;;5034175;28;20231;-81
2022/12/06 05:43:43;;;;;;;3.77;3.47;;;;;;;;;;5034836;28;20209;-82
2022/12/06 05:46:10;;;;;;;3.90;3.33;;;;;;;;;;5034113;28;20238;-81
2022/12/06 05:48:37;;;;;;;4.20;3.80;;;;;;;;;;5034111;28;20221;-81
2022/12/06 05:51:04;;;;;;;3.80;3.50;;;;;;;;;;5033897;28;20242;-82
2022/12/06 05:53:33;;;;;;;4.10;3.70;;;;;;;;;;5034712;28;20211;-82
2022/12/06 05:56:04;;;;;;;3.83;3.53;;;;;;;;;;5033962;28;20248;-82
2022/12/06 05:58:32;;;;;;;4.00;3.67;;;;;;;;;;5034466;28;20198;-81
2022/12/06 06:00:59;;;;;;;3.77;3.47;;;;;;;;;;5033591;28;20234;-81
2022/12/06 06:03:26;;;;;;;3.77;3.47;;;;;;;;;;5033547;28;20735;-82
2022/12/06 06:05:56;;;;;;;4.10;3.70;;;;;;;;;;5033652;28;20234;-81
2022/12/06 06:08:23;;;;;;;4.40;4.00;;;;;;;;;;5033818;28;20200;-81
2022/12/06 06:10:52;;;;;;;6.63;3.97;;;;;;;;;;5033306;28;20314;-81
2022/12/06 06:13:19;;;;;;;3.93;3.53;;;;;;;;;;5033711;28;20728;-81
2022/12/06 06:15:46;;;;;;;4.03;3.63;;;;;;;;;;5032915;28;20226;-81
2022/12/06 06:18:14;;;;;;;4.50;3.83;;;;;;;;;;5033603;28;20289;-81
2022/12/06 06:20:41;;;;;;;3.67;3.37;;;;;;;;;;5046495;28;20760;-81
2022/12/06 06:23:08;;;;;;;4.30;3.80;;;;;;;;;;5053065;28;20241;-81
2022/12/06 06:25:35;;;;;;;4.30;3.90;;;;;;;;;;5036954;28;20701;-81
2022/12/06 06:28:04;;;;;;;4.57;3.53;;;;;;;;;;5032944;28;20202;-81
2022/12/06 06:30:31;;;;;;;4.50;3.53;;;;;;;;;;5033432;28;20233;-81
2022/12/06 06:32:58;;;;;;;3.83;3.53;;;;;;;;;;5033714;28;20232;-81
2022/12/06 06:35:25;;;;;;;3.93;3.53;;;;;;;;;;5033266;28;20233;-81
2022/12/06 06:37:52;;;;;;;7.80;4.47;;;;;;;;;;5033653;28;20609;-83
2022/12/06 06:40:20;;;;;;;3.93;3.63;;;;;;;;;;5033010;28;20567;-83
2022/12/06 06:42:47;;;;;;;4.23;3.43;;;;;;;;;;5033723;28;20230;-83
2022/12/06 06:45:16;;;;;;;3.80;3.50;;;;;;;;;;5018442;28;20212;-83
2022/12/06 06:47:44;;;;;;;3.53;3.23;;;;;;;;;;5033721;28;20631;-83
2022/12/06 06:50:12;;;;;;;4.10;3.70;;;;;;;;;;5033275;28;20183;-82
2022/12/06 06:52:40;;;;;;;4.47;4.03;;;;;;;;;;5033574;28;20603;-83
2022/12/06 06:55:08;;;;;;;5.80;4.17;;;;;;;;;;5032930;28;20206;-83
2022/12/06 06:57:35;;;;;;;6.50;5.80;;;;;;;;;;5033588;28;20195;-83
2022/12/06 07:00:02;;;;;;;6.97;5.83;;;;;;;;;;5032561;28;20276;-83
2022/12/06 07:02:31;;;;;;;6.53;4.20;;;;;;;;;;5033017;28;20215;-81
2022/12/06 07:04:58;;;;;;;4.37;4.07;;;;;;;;;;5033139;28;20654;-81
2022/12/06 07:07:25;;;;;;;4.43;4.03;;;;;;;;;;5032677;28;20238;-82
2022/12/06 07:09:52;;;;;;;4.10;3.70;;;;;;;;;;5033047;28;20210;-82
2022/12/06 07:12:19;;;;;;;4.80;4.30;;;;;;;;;;5032282;28;20250;-82
2022/12/06 07:14:46;;;;;;;4.30;3.90;;;;;;;;;;5033323;28;20218;-82
2022/12/06 07:17:14;;;;;;;4.40;4.00;;;;;;;;;;5032407;28;20721;-82
2022/12/06 07:19:42;;;;;;;4.33;3.93;;;;;;;;;;5033057;28;20296;-82
2022/12/06 07:22:10;;;;;;;4.20;3.90;;;;;;;;;;5032068;28;20242;-82
2022/12/06 07:24:37;;;;;;;4.00;3.60;;;;;;;;;;5032963;28;20223;-81
2022/12/06 07:27:04;;;;;;;4.10;3.80;;;;;;;;;;5032578;28;20253;-82
2022/12/06 07:29:31;;;;;;;4.57;4.17;;;;;;;;;;5032678;28;20214;-82
2022/12/06 07:31:59;;;;;;;4.57;4.17;;;;;;;;;;5032039;28;20246;-81
2022/12/06 07:34:26;;;;;;;10.30;5.00;;;;;;;;;;5032352;28;20621;-81
2022/12/06 07:36:54;;;;;;;5.17;4.77;;;;;;;;;;5032009;28;20718;-81
2022/12/06 07:39:21;;;;;;;5.40;4.90;;;;;;;;;;5032264;28;20201;-81
2022/12/06 07:47:17;;;;;;;6.93;6.17;;;;;;;;;;5032060;28;20238;-82
2022/12/06 07:49:44;;;;;;;6.40;5.73;;;;;;;;;;5032438;28;20305;-82
2022/12/06 07:52:13;;;;;;;5.07;4.67;;;;;;;;;;5031739;28;20238;-82
2022/12/06 07:54:41;;;;;;;5.33;4.83;;;;;;;;;;5032228;28;20219;-83
2022/12/06 07:57:08;;;;;;;6.27;5.40;;;;;;;;;;5031481;28;20245;-83
2022/12/06 07:59:35;;;;;;;6.60;5.60;;;;;;;;;;5032149;28;20211;-82
2022/12/06 08:02:02;;;;;;;7.43;5.90;;;;;;;;;;5031556;28;20329;-82
2022/12/06 08:04:29;;;;;;;6.10;5.47;;;;;;;;;;5032344;28;20208;-83
2022/12/06 08:06:56;;;;;;;5.90;5.33;;;;;;;;;;5031961;28;20289;-83
2022/12/06 08:09:25;;;;;;;8.23;6.73;;;;;;;;;;5032237;28;20241;-83
2022/12/06 08:11:52;;;;;;;5.33;4.40;;;;;;;;;;5032269;28;20243;-81
2022/12/06 08:14:19;;;;;;;5.43;4.73;;;;;;;;;;5032606;28;20202;-80
2022/12/06 08:16:46;;;;;;;5.73;5.20;;;;;;;;;;5031555;28;20245;-81
2022/12/06 08:19:13;;;;;;;5.80;5.20;;;;;;;;;;5031427;28;20206;-81
2022/12/06 08:21:40;;;;;;;5.20;4.67;;;;;;;;;;5031280;28;20571;-82
2022/12/06 08:24:08;;;;;;;5.30;4.80;;;;;;;;;;5032226;28;20209;-82
2022/12/06 08:26:36;;;;;;;5.23;4.73;;;;;;;;;;5031600;28;20234;-83
2022/12/06 08:29:04;;;;;;;5.67;5.10;;;;;;;;;;5031726;28;20213;-83
2022/12/06 08:31:33;;;;;;;5.83;4.83;;;;;;;;;;5031843;28;20237;-82
2022/12/06 08:34:00;;;;;;;6.40;4.40;;;;;;;;;;5031821;28;20750;-81
2022/12/06 08:36:28;;;;;;;5.10;4.70;;;;;;;;;;5031284;28;20237;-81
2022/12/06 08:38:56;;;;;;;4.63;4.13;;;;;;;;;;5031488;28;20210;-82
2022/12/06 08:44:12;;;;;;;14.17;7.63;;;;;;;;;;5031636;28;20197;-82
2022/12/06 08:46:39;;;;;;;8.40;5.30;;;;;;;;;;5031311;28;20234;-82
2022/12/06 08:49:06;;;;;;;4.93;4.43;;;;;;;;;;5031664;28;20213;-81
2022/12/06 08:51:34;;;;;;;4.90;4.50;;;;;;;;;;5031132;28;20240;-82
2022/12/06 08:54:02;;;;;;;4.40;4.00;;;;;;;;;;5031925;28;20213;-82
2022/12/06 08:56:29;;;;;;;4.70;4.30;;;;;;;;;;5031348;28;20244;-82
2022/12/06 08:58:56;;;;;;;5.10;4.60;;;;;;;;;;5031642;28;20210;-81
2022/12/06 09:01:26;;;;;;;5.47;4.97;;;;;;;;;;5031101;28;20261;-83
2022/12/06 09:03:53;;;;;;;5.80;5.07;;;;;;;;;;5031535;28;20213;-81
2022/12/06 09:06:21;;;;;;;5.37;4.87;;;;;;;;;;5031017;28;20341;-81
2022/12/06 09:08:48;;;;;;;6.97;5.00;;;;;;;;;;5031273;28;20235;-82
2022/12/06 09:11:15;;;;;;;4.60;4.20;;;;;;;;;;5033977;28;20238;-82
2022/12/06 09:13:43;;;;;;;5.10;4.60;;;;;;;;;;5031573;28;20224;-82
2022/12/06 09:16:11;;;;;;;5.33;4.23;;;;;;;;;;5033617;28;20234;-82
2022/12/06 09:18:39;;;;;;;5.30;4.77;;;;;;;;;;5034377;28;20606;-82
2022/12/06 09:21:07;;;;;;;5.37;4.60;;;;;;;;;;5034225;28;20772;-82
2022/12/06 09:23:34;;;;;;;4.97;4.57;;;;;;;;;;5034649;28;20210;-81
2022/12/06 09:26:01;;;;;;;5.17;4.67;;;;;;;;;;5033674;28;20642;-82
2022/12/06 09:28:29;;;;;;;5.47;4.97;;;;;;;;;;5033175;28;20213;-82
2022/12/06 09:30:56;;;;;;;5.77;4.57;;;;;;;;;;5033355;28;20227;-82
2022/12/06 09:33:24;;;;;;;5.30;4.10;;;;;;;;;;5033933;28;20314;-82
2022/12/06 09:35:52;;;;;;;4.83;4.43;;;;;;;;;;5033569;28;20246;-81
2022/12/06 09:38:21;;;;;;;5.33;4.53;;;;;;;;;;5034074;28;20222;-81
2022/12/06 09:40:52;;;;;;;4.20;3.80;;;;;;;;;;5033194;28;20261;-82
2022/12/06 09:43:27;;;;;;;4.70;4.30;;;;;;;;;;5033296;28;20485;-82
2022/12/06 09:46:03;;;;;;;4.67;4.27;;;;;;;;;;5033434;28;20256;-82
2022/12/06 09:48:38;;;;;;;4.40;4.10;;;;;;;;;;5024850;28;20574;-82
2022/12/06 09:51:15;;;;;;;4.40;4.03;;;;;;;;;;5014201;28;20250;-82
2022/12/06 09:53:48;;;;;;;5.07;4.57;;;;;;;;;;5013886;28;20210;-82
2022/12/06 09:56:20;;;;;;;4.20;3.83;;;;;;;;;;5013866;28;20239;-82
2022/12/06 09:58:54;;;;;;;4.80;4.10;;;;;;;;;;5033005;28;20268;-82
2022/12/06 10:01:25;;;;;;;4.90;4.33;;;;;;;;;;5033028;28;20240;-82
2022/12/06 10:03:57;;;;;;;4.43;4.03;;;;;;;;;;5054241;28;20190;-82
2022/12/06 10:06:29;;;;;;;4.23;3.80;;;;;;;;;;5039956;28;20241;-81
2022/12/06 10:09:03;;;;;;;4.57;4.17;;;;;;;;;;5033857;28;20316;-82
2022/12/06 10:11:39;;;;;;;4.67;4.00;;;;;;;;;;5033430;28;20291;-82
2022/12/06 10:14:13;;;;;;;4.33;4.00;;;;;;;;;;5034418;28;20194;-86
2022/12/06 10:16:45;;;;;;;4.93;4.47;;;;;;;;;;5033707;28;20705;-84
2022/12/06 10:19:16;;;;;;;4.70;4.30;;;;;;;;;;5033894;28;20198;-84
2022/12/06 10:21:50;;;;;;;4.60;4.20;;;;;;;;;;5032832;28;20230;-85
2022/12/06 10:24:26;;;;;;;4.27;3.83;;;;;;;;;;5033934;28;20233;-83
2022/12/06 10:26:54;;;;;;;4.43;4.00;;;;;;;;;;5032970;28;20234;-84
2022/12/06 10:29:23;;;;;;;4.87;4.43;;;;;;;;;;5033382;28;20217;-83
2022/12/06 10:31:55;;;;;;;4.30;3.90;;;;;;;;;;5032748;28;20235;-83
2022/12/06 10:34:23;;;;;;;5.03;4.03;;;;;;;;;;5033355;28;20205;-82
2022/12/06 10:36:56;;;;;;;4.50;4.03;;;;;;;;;;5032807;28;20242;-82
2022/12/06 10:39:26;;;;;;;4.50;4.10;;;;;;;;;;5033162;28;20647;-83
2022/12/06 10:41:58;;;;;;;4.30;3.90;;;;;;;;;;5032540;28;20235;-81
2022/12/06 10:44:29;;;;;;;4.43;4.13;;;;;;;;;;5033152;28;20217;-83
2022/12/06 10:47:04;;;;;;;4.60;4.20;;;;;;;;;;5032561;28;20230;-82
2022/12/06 10:49:36;;;;;;;4.30;3.90;;;;;;;;;;5032814;28;20202;-82
2022/12/06 10:52:06;;;;;;;4.00;3.70;;;;;;;;;;5031545;28;20226;-82
2022/12/06 10:54:35;;;;;;;4.37;3.97;;;;;;;;;;5032724;28;20210;-82
2022/12/06 10:57:05;;;;;;;4.80;4.30;;;;;;;;;;5032061;28;20245;-82
2022/12/06 10:59:37;;;;;;;4.60;4.10;;;;;;;;;;5032652;28;20233;-82
2022/12/06 11:02:12;;;;;;;5.70;4.43;;;;;;;;;;5032063;28;20245;-82
2022/12/06 11:04:41;;;;;;;6.50;5.57;;;;;;;;;;5032974;28;20186;-82
2022/12/06 11:07:14;;;;;;;5.00;4.50;;;;;;;;;;5032094;28;20231;-82
2022/12/06 11:09:43;;;;;;;3.90;3.60;;;;;;;;;;5032245;28;20560;-82
2022/12/06 11:12:19;;;;;;;5.47;3.90;;;;;;;;;;5031608;28;20239;-82
2022/12/06 11:14:47;;;;;;;3.87;3.57;;;;;;;;;;5032622;28;20194;-82
2022/12/06 11:17:15;;;;;;;4.20;3.90;;;;;;;;;;5031925;28;20741;-82
2022/12/06 11:19:44;;;;;;;3.67;3.37;;;;;;;;;;5032111;28;20373;-82
2022/12/06 11:22:32;;;;;;;3.73;3.43;;;;;;;;;;5031747;28;20230;-82
2022/12/06 11:25:03;;;;;;;5.40;4.90;;;;;;;;;;5032217;28;20708;-82
2022/12/06 11:27:33;;;;;;;5.43;4.50;;;;;;;;;;5032264;28;20214;-82
2022/12/06 11:30:02;;;;;;;5.90;3.60;;;;;;;;;;5032066;28;20206;-82
2022/12/06 11:32:29;;;;;;;4.27;3.90;;;;;;;;;;5031291;28;20230;-82
2022/12/06 11:34:57;;;;;;;4.60;3.87;;;;;;;;;;5031899;28;20207;-81
2022/12/06 11:37:28;;;;;;;3.50;3.20;;;;;;;;;;5031590;28;20245;-82
2022/12/06 11:39:59;;;;;;;4.87;4.47;;;;;;;;;;5031604;28;20333;-81
2022/12/06 11:42:28;;;;;;;3.20;3.00;;;;;;;;;;5031522;28;20238;-82
2022/12/06 11:44:57;;;;;;;3.97;3.67;;;;;;;;;;5032021;28;20554;-81
2022/12/06 11:47:24;;;;;;;3.90;3.60;;;;;;;;;;5031264;28;20241;-82
2022/12/06 11:49:54;;;;;;;4.60;3.50;;;;;;;;;;5032870;28;20214;-82
2022/12/06 11:52:24;;;;;;;3.80;3.50;;;;;;;;;;5031297;28;20235;-82
2022/12/06 11:54:55;;;;;;;4.17;3.77;;;;;;;;;;5031668;28;20675;-82
2022/12/06 11:57:24;;;;;;;3.57;3.27;;;;;;;;;;5031200;28;20242;-82
2022/12/06 12:00:07;;;;;;;3.97;3.67;;;;;;;;;;5031794;28;20198;-81
2022/12/06 12:02:34;;;;;;;3.60;3.30;;;;;;;;;;5031579;28;20306;-81
2022/12/06 12:05:09;;;;;;;3.70;3.40;;;;;;;;;;5031869;28;20207;-81
2022/12/06 12:07:36;;;;;;;3.50;3.20;;;;;;;;;;5030593;28;20240;-81
2022/12/06 12:10:23;;;;;;;3.83;3.53;;;;;;;;;;5030807;28;20215;-82
2022/12/06 12:15:35;;;;;;;3.60;3.30;;;;;;;;;;5030322;28;20233;-82
2022/12/06 12:18:03;;;;;;;3.80;3.50;;;;;;;;;;5031233;28;20206;-82
2022/12/06 12:20:33;;;;;;;4.17;3.87;;;;;;;;;;5030803;28;20226;-82
2022/12/06 12:23:01;;;;;;;3.70;3.40;;;;;;;;;;5015246;28;20716;-81
2022/12/06 12:25:30;;;;;;;4.00;3.60;;;;;;;;;;5011063;28;20691;-82
2022/12/06 12:27:58;;;;;;;3.63;3.33;;;;;;;;;;5011254;28;20219;-81
2022/12/06 12:30:33;;;;;;;3.60;3.30;;;;;;;;;;5015938;28;20265;-82
2022/12/06 12:33:17;;;;;;;3.53;3.23;;;;;;;;;;5031017;28;20717;-81
2022/12/06 12:35:45;;;;;;;4.63;4.23;;;;;;;;;;5030440;28;20284;-82
2022/12/06 12:38:17;;;;;;;3.87;3.53;;;;;;;;;;5030859;28;20222;-82
2022/12/06 12:40:47;;;;;;;4.27;3.93;;;;;;;;;;5030750;28;20238;-82
2022/12/06 12:43:20;;;;;;;4.03;3.73;;;;;;;;;;5031656;28;20226;-82
2022/12/06 12:46:04;;;;;;;4.40;4.00;;;;;;;;;;5033286;28;20230;-82
2022/12/06 12:48:31;;;;;;;4.00;3.70;;;;;;;;;;5034526;28;20203;-82
2022/12/06 12:50:59;;;;;;;4.13;3.53;;;;;;;;;;5026381;28;20222;-82
2022/12/06 12:53:30;;;;;;;4.10;3.80;;;;;;;;;;5034941;28;20242;-82
2022/12/06 12:56:07;;;;;;;4.17;3.87;;;;;;;;;;5034569;28;20447;-82
2022/12/06 12:58:35;;;;;;;4.63;4.23;;;;;;;;;;5033723;28;20202;-82
2022/12/06 13:01:03;;;;;;;3.70;3.40;;;;;;;;;;5034675;28;20234;-82
2022/12/06 13:03:30;;;;;;;3.97;3.67;;;;;;;;;;5035001;28;20226;-82
2022/12/06 13:05:58;;;;;;;4.40;4.00;;;;;;;;;;5034518;28;20245;-82
2022/12/06 13:08:26;;;;;;;5.20;4.20;;;;;;;;;;5027022;28;20289;-82
2022/12/06 13:10:56;;;;;;;4.83;3.60;;;;;;;;;;5034351;28;20243;-82
2022/12/06 13:13:27;;;;;;;5.10;4.00;;;;;;;;;;5034815;28;20231;-81
2022/12/06 13:15:55;;;;;;;4.47;3.80;;;;;;;;;;5034345;28;20602;-82
2022/12/06 13:18:24;;;;;;;3.70;3.40;;;;;;;;;;5034712;28;20210;-82
2022/12/06 13:20:53;;;;;;;4.13;3.60;;;;;;;;;;5034187;28;21008;-82
2022/12/06 13:23:22;;;;;;;3.80;3.50;;;;;;;;;;5037308;28;20226;-82
2022/12/06 13:25:53;;;;;;;3.70;3.40;;;;;;;;;;5035799;28;20289;-81
2022/12/06 13:28:22;;;;;;;4.37;3.97;;;;;;;;;;5034418;28;20203;-82
2022/12/06 13:30:54;;;;;;;3.53;3.33;;;;;;;;;;5034123;28;20234;-80
2022/12/06 13:33:22;;;;;;;4.47;3.20;;;;;;;;;;5034857;28;20643;-82
2022/12/06 13:35:52;;;;;;;3.30;3.10;;;;;;;;;;5034075;28;20234;-84
2022/12/06 13:38:24;;;;;;;3.87;3.57;;;;;;;;;;5034269;28;20207;-84
2022/12/06 13:40:52;;;;;;;5.37;4.10;;;;;;;;;;5033646;28;20817;-83
2022/12/06 13:43:38;;;;;;;4.80;4.40;;;;;;;;;;5034715;28;20222;-84
2022/12/06 13:49:01;;;;;;;4.97;3.50;;;;;;;;;;5167758;27;20591;-84
2022/12/06 13:51:47;;;;;;;4.17;3.77;;;;;;;;;;5122365;27;20701;-83
2022/12/06 13:54:35;;;;;;;3.73;3.43;;;;;;;;;;5088957;28;20829;-83
2022/12/06 13:57:03;;;;;;;4.07;3.77;;;;;;;;;;5088741;28;20232;-83
2022/12/06 13:59:35;;;;;;;4.10;3.80;;;;;;;;;;5088658;28;20208;-83
2022/12/06 14:02:02;;;;;;;3.87;3.57;;;;;;;;;;5088314;28;20246;-83
2022/12/06 14:04:32;;;;;;;4.17;3.87;;;;;;;;;;5088867;28;20189;-83
2022/12/06 14:07:00;;;;;;;6.77;4.07;;;;;;;;;;5088522;28;20590;-83
2022/12/06 14:09:28;;;;;;;3.97;3.67;;;;;;;;;;5088196;28;20204;-83
2022/12/06 14:12:00;;;;;;;4.00;3.60;;;;;;;;;;5087911;28;20241;-83
2022/12/06 14:14:27;;;;;;;4.37;4.00;;;;;;;;;;5088700;28;20192;-83
2022/12/06 14:16:56;;;;;;;4.53;4.10;;;;;;;;;;5088435;28;20233;-82
2022/12/06 14:19:26;;;;;;;4.07;3.33;;;;;;;;;;5088212;28;20204;-82
2022/12/06 14:21:56;;;;;;;3.80;3.40;;;;;;;;;;5087731;28;20243;-82
2022/12/06 14:24:31;;;;;;;3.70;3.40;;;;;;;;;;5088105;28;20205;-83
2022/12/06 14:27:11;;;;;;;5.73;3.70;;;;;;;;;;5087479;28;20240;-82
2022/12/06 14:29:38;;;;;;;4.17;3.87;;;;;;;;;;5088039;28;20212;-82
2022/12/06 14:32:06;;;;;;;3.93;3.60;;;;;;;;;;5070028;22;20230;-83
2022/12/06 14:34:34;;;;;;;4.10;3.70;;;;;;;;;;5031640;28;20202;-82
2022/12/06 14:37:03;;;;;;;5.07;3.90;;;;;;;;;;5027403;28;20249;-83
2022/12/06 14:39:32;;;;;;;4.70;4.30;;;;;;;;;;5027946;28;20225;-83
2022/12/06 14:44:47;;;;;;;3.83;3.53;;;;;;;;;;5027784;28;20206;-82
2022/12/06 14:47:16;;;;;;;4.10;3.70;;;;;;;;;;5040075;28;20233;-83
2022/12/06 14:52:30;;;;;;;4.87;4.47;;;;;;;;;;5047019;28;20233;-83
2022/12/06 14:55:15;;;;;;;5.90;4.73;;;;;;;;;;5047677;28;20211;-83
2022/12/06 14:57:44;;;;;;;4.30;3.90;;;;;;;;;;5047201;28;20237;-83
2022/12/06 15:00:15;;;;;;;7.33;5.63;;;;;;;;;;5034288;28;20784;-83
2022/12/06 15:02:58;;;;;;;6.83;5.13;;;;;;;;;;5033716;28;20207;-83
2022/12/06 15:05:33;;;;;;;14.17;7.60;;;;;;;;;;5033593;28;20230;-82
2022/12/06 15:08:17;;;;;;;5.63;4.93;;;;;;;;;;5032323;28;20681;-83
2022/12/06 15:10:54;;;;;;;10.03;5.27;;;;;;;;;;5036314;28;20243;-82
2022/12/06 15:13:21;;;;;;;6.37;4.77;;;;;;;;;;5054284;28;20193;-83
2022/12/06 15:15:49;;;;;;;13.23;7.00;;;;;;;;;;5053346;28;20610;-83
2022/12/06 15:18:21;;;;;;;6.97;5.30;;;;;;;;;;5054045;28;20209;-83
2022/12/06 15:20:48;;;;;;;6.97;5.63;;;;;;;;;;5053057;28;20238;-83
2022/12/06 15:23:34;;;;;;;10.67;7.50;;;;;;;;;;5050298;28;20289;-83
2022/12/06 15:26:04;;;;;;;9.90;6.30;;;;;;;;;;5024755;28;20593;-83
2022/12/06 15:28:31;;;;;;;4.67;4.27;;;;;;;;;;5033721;28;20226;-83
2022/12/06 15:30:59;;;;;;;5.50;4.43;;;;;;;;;;5032759;28;20239;-83
2022/12/06 15:33:26;;;;;;;4.40;4.00;;;;;;;;;;5033582;28;20210;-83